sensor_id;sensor_type;location;lat;lon;timestamp;pressure;altitude;pressure_sealevel;temperature;humidity
75072;BME280;63651;55.728;38.022;2023-02-15T00:00:39;99668.66;;;12.30;33.62
75072;BME280;63651;55.728;38.022;2023-02-15T00:05:40;99674.72;;;12.38;33.35
75072;BME280;63651;55.728;38.022;2023-02-15T00:10:41;99670.75;;;12.34;33.20
75072;BME280;63651;55.728;38.022;2023-02-15T00:15:42;99673.69;;;12.33;33.58
75072;BME280;63651;55.728;38.022;2023-02-15T00:20:43;99679.53;;;12.36;33.46
75072;BME280;63651;55.728;38.022;2023-02-15T00:25:44;99674.53;;;12.33;33.71
75072;BME280;63651;55.728;38.022;2023-02-15T00:30:45;99674.53;;;12.33;33.58
75072;BME280;63651;55.728;38.022;2023-02-15T00:35:46;99685.00;;;12.30;33.97
75072;BME280;63651;55.728;38.022;2023-02-15T00:40:54;99684.97;;;12.43;33.98
75072;BME280;63651;55.728;38.022;2023-02-15T00:45:56;99691.94;;;12.26;33.81
75072;BME280;63651;55.728;38.022;2023-02-15T00:50:58;99687.75;;;12.30;34.00
75072;BME280;63651;55.728;38.022;2023-02-15T00:55:59;99686.47;;;12.32;33.88
75072;BME280;63651;55.728;38.022;2023-02-15T01:01:09;99692.13;;;12.31;34.03
75072;BME280;63651;55.728;38.022;2023-02-15T01:06:12;99698.22;;;12.33;34.20
75072;BME280;63651;55.728;38.022;2023-02-15T01:11:18;99701.97;;;12.32;34.48
75072;BME280;63651;55.728;38.022;2023-02-15T01:16:27;99695.91;;;12.30;33.88
75072;BME280;63651;55.728;38.022;2023-02-15T01:21:28;99696.53;;;12.32;34.33
75072;BME280;63651;55.728;38.022;2023-02-15T01:26:30;99714.09;;;12.42;33.93
75072;BME280;63651;55.728;38.022;2023-02-15T01:31:31;99714.56;;;12.33;34.20
75072;BME280;63651;55.728;38.022;2023-02-15T01:36:33;99715.78;;;12.37;33.82
75072;BME280;63651;55.728;38.022;2023-02-15T01:41:34;99704.28;;;12.35;33.55
75072;BME280;63651;55.728;38.022;2023-02-15T01:46:50;99713.31;;;12.29;33.56
75072;BME280;63651;55.728;38.022;2023-02-15T01:51:53;99720.84;;;12.33;33.50
75072;BME280;63651;55.728;38.022;2023-02-15T01:56:58;99720.66;;;12.22;33.90
75072;BME280;63651;55.728;38.022;2023-02-15T02:02:02;99722.31;;;12.29;33.65
75072;BME280;63651;55.728;38.022;2023-02-15T02:07:06;99724.19;;;12.29;33.94
75072;BME280;63651;55.728;38.022;2023-02-15T02:12:08;99730.06;;;12.26;33.19
75072;BME280;63651;55.728;38.022;2023-02-15T02:17:17;99728.81;;;12.22;33.94
75072;BME280;63651;55.728;38.022;2023-02-15T02:49:13;99751.66;;;12.27;33.26
75072;BME280;63651;55.728;38.022;2023-02-15T02:54:14;99762.34;;;12.22;32.91
75072;BME280;63651;55.728;38.022;2023-02-15T02:59:23;99762.75;;;12.26;33.41
75072;BME280;63651;55.728;38.022;2023-02-15T03:04:32;99766.72;;;12.23;33.07
75072;BME280;63651;55.728;38.022;2023-02-15T03:09:39;99763.16;;;12.23;33.32
75072;BME280;63651;55.728;38.022;2023-02-15T03:14:49;99760.03;;;12.19;32.75
75072;BME280;63651;55.728;38.022;2023-02-15T03:19:56;99765.91;;;12.16;32.77
75072;BME280;63651;55.728;38.022;2023-02-15T03:30:19;99769.25;;;12.18;32.34
75072;BME280;63651;55.728;38.022;2023-02-15T03:35:24;99763.59;;;12.13;33.27
75072;BME280;63651;55.728;38.022;2023-02-15T03:40:30;99782.88;;;12.11;33.14
75072;BME280;63651;55.728;38.022;2023-02-15T03:45:55;99761.50;;;12.22;32.61
75072;BME280;63651;55.728;38.022;2023-02-15T03:51:01;99776.16;;;12.21;32.83
75072;BME280;63651;55.728;38.022;2023-02-15T03:56:22;99779.94;;;12.06;32.71
75072;BME280;63651;55.728;38.022;2023-02-15T04:01:37;99778.06;;;12.07;32.45
75072;BME280;63651;55.728;38.022;2023-02-15T04:06:57;99791.88;;;12.05;32.71
75072;BME280;63651;55.728;38.022;2023-02-15T04:11:59;99788.53;;;12.10;32.46
75072;BME280;63651;55.728;38.022;2023-02-15T04:17:00;99792.72;;;11.99;33.31
75072;BME280;63651;55.728;38.022;2023-02-15T04:22:01;99789.38;;;12.04;33.02
75072;BME280;63651;55.728;38.022;2023-02-15T04:27:20;99782.03;;;12.11;32.44
75072;BME280;63651;55.728;38.022;2023-02-15T04:32:22;99793.97;;;12.03;32.59
75072;BME280;63651;55.728;38.022;2023-02-15T04:37:23;99777.22;;;12.13;32.82
75072;BME280;63651;55.728;38.022;2023-02-15T04:42:27;99793.97;;;12.10;32.69
75072;BME280;63651;55.728;38.022;2023-02-15T04:47:28;99795.66;;;12.17;32.75
75072;BME280;63651;55.728;38.022;2023-02-15T04:52:29;99795.84;;;12.09;35.17
75072;BME280;63651;55.728;38.022;2023-02-15T04:57:31;99797.75;;;12.09;37.13
75072;BME280;63651;55.728;38.022;2023-02-15T05:02:32;99806.53;;;12.11;37.69
75072;BME280;63651;55.728;38.022;2023-02-15T05:07:33;99801.78;;;14.18;42.40
75072;BME280;63651;55.728;38.022;2023-02-15T05:12:34;99798.09;;;14.81;40.11
75072;BME280;63651;55.728;38.022;2023-02-15T05:17:35;99809.50;;;15.14;38.81
75072;BME280;63651;55.728;38.022;2023-02-15T05:22:36;99817.53;;;15.46;38.06
75072;BME280;63651;55.728;38.022;2023-02-15T05:27:37;99799.44;;;15.63;36.86
75072;BME280;63651;55.728;38.022;2023-02-15T05:32:57;99811.56;;;15.85;35.45
75072;BME280;63651;55.728;38.022;2023-02-15T05:37:58;99807.88;;;15.91;35.28
75072;BME280;63651;55.728;38.022;2023-02-15T05:42:59;99820.06;;;16.07;37.25
75072;BME280;63651;55.728;38.022;2023-02-15T05:48:01;99824.75;;;16.30;38.15
75072;BME280;63651;55.728;38.022;2023-02-15T05:53:02;99828.47;;;16.47;37.19
75072;BME280;63651;55.728;38.022;2023-02-15T05:58:03;99836.94;;;16.57;36.12
75072;BME280;63651;55.728;38.022;2023-02-15T06:03:04;99829.59;;;16.70;35.22
75072;BME280;63651;55.728;38.022;2023-02-15T06:08:05;99837.09;;;16.74;34.87
75072;BME280;63651;55.728;38.022;2023-02-15T06:13:06;99847.47;;;16.84;34.30
75072;BME280;63651;55.728;38.022;2023-02-15T06:18:07;99850.47;;;16.82;33.54
75072;BME280;63651;55.728;38.022;2023-02-15T06:23:08;99853.94;;;16.89;33.00
75072;BME280;63651;55.728;38.022;2023-02-15T06:28:10;99869.78;;;16.87;32.30
75072;BME280;63651;55.728;38.022;2023-02-15T06:33:11;99866.59;;;16.90;31.52
75072;BME280;63651;55.728;38.022;2023-02-15T06:38:12;99862.06;;;16.96;30.85
75072;BME280;63651;55.728;38.022;2023-02-15T06:43:13;99854.44;;;16.98;30.50
75072;BME280;63651;55.728;38.022;2023-02-15T06:48:14;99864.81;;;17.08;29.36
75072;BME280;63651;55.728;38.022;2023-02-15T06:53:15;99856.78;;;17.18;29.07
75072;BME280;63651;55.728;38.022;2023-02-15T06:58:18;99868.59;;;17.18;28.22
75072;BME280;63651;55.728;38.022;2023-02-15T07:03:19;99858.94;;;17.27;27.86
75072;BME280;63651;55.728;38.022;2023-02-15T07:08:20;99870.97;;;17.38;27.59
75072;BME280;63651;55.728;38.022;2023-02-15T07:13:21;99874.03;;;17.53;27.25
75072;BME280;63651;55.728;38.022;2023-02-15T07:18:23;99875.06;;;17.64;26.67
75072;BME280;63651;55.728;38.022;2023-02-15T07:23:24;99874.00;;;17.77;25.87
75072;BME280;63651;55.728;38.022;2023-02-15T07:28:26;99876.72;;;17.77;26.01
75072;BME280;63651;55.728;38.022;2023-02-15T07:33:29;99878.06;;;17.74;25.64
75072;BME280;63651;55.728;38.022;2023-02-15T07:38:34;99867.41;;;17.78;25.85
75072;BME280;63651;55.728;38.022;2023-02-15T07:43:38;99864.75;;;17.83;25.12
75072;BME280;63651;55.728;38.022;2023-02-15T07:48:41;99884.03;;;17.71;24.67
75072;BME280;63651;55.728;38.022;2023-02-15T07:53:43;99885.44;;;17.10;23.73
75072;BME280;63651;55.728;38.022;2023-02-15T07:58:45;99881.56;;;16.64;24.11
75072;BME280;63651;55.728;38.022;2023-02-15T08:03:53;99892.97;;;16.38;23.80
75072;BME280;63651;55.728;38.022;2023-02-15T08:08:55;99906.47;;;16.10;24.46
75072;BME280;63651;55.728;38.022;2023-02-15T08:14:00;99907.47;;;15.97;24.30
75072;BME280;63651;55.728;38.022;2023-02-15T08:19:08;99906.63;;;15.66;24.40
75072;BME280;63651;55.728;38.022;2023-02-15T08:24:11;99920.94;;;15.44;25.09
75072;BME280;63651;55.728;38.022;2023-02-15T08:29:20;99918.34;;;15.12;25.30
75072;BME280;63651;55.728;38.022;2023-02-15T08:34:23;99923.22;;;14.85;25.40
75072;BME280;63651;55.728;38.022;2023-02-15T08:39:24;99932.56;;;14.78;25.66
75072;BME280;63651;55.728;38.022;2023-02-15T08:44:25;99932.81;;;14.69;25.24
75072;BME280;63651;55.728;38.022;2023-02-15T08:49:29;99930.53;;;14.66;25.94
75072;BME280;63651;55.728;38.022;2023-02-15T08:54:33;99933.16;;;14.55;26.19
75072;BME280;63651;55.728;38.022;2023-02-15T08:59:34;99933.59;;;14.52;26.07
75072;BME280;63651;55.728;38.022;2023-02-15T09:04:35;99936.56;;;14.50;26.08
75072;BME280;63651;55.728;38.022;2023-02-15T09:09:36;99940.19;;;14.37;26.23
75072;BME280;63651;55.728;38.022;2023-02-15T09:14:37;99934.94;;;14.36;26.25
75072;BME280;63651;55.728;38.022;2023-02-15T09:19:38;99937.06;;;14.27;26.39
75072;BME280;63651;55.728;38.022;2023-02-15T09:24:39;99950.09;;;14.32;26.85
75072;BME280;63651;55.728;38.022;2023-02-15T09:29:41;99955.81;;;14.24;26.91
75072;BME280;63651;55.728;38.022;2023-02-15T09:34:43;99952.00;;;14.31;27.29
75072;BME280;63651;55.728;38.022;2023-02-15T09:39:44;99967.97;;;14.28;27.11
75072;BME280;63651;55.728;38.022;2023-02-15T10:05:53;99981.41;;;14.36;27.57
75072;BME280;63651;55.728;38.022;2023-02-15T10:22:08;99990.94;;;14.14;26.66
75072;BME280;63651;55.728;38.022;2023-02-15T10:27:21;99989.53;;;14.04;27.50
75072;BME280;63651;55.728;38.022;2023-02-15T10:32:25;99992.91;;;14.00;27.54
75072;BME280;63651;55.728;38.022;2023-02-15T10:37:57;100002.28;;;14.17;28.49
75072;BME280;63651;55.728;38.022;2023-02-15T11:04:39;100027.13;;;14.60;29.06
75072;BME280;63651;55.728;38.022;2023-02-15T11:09:46;100031.94;;;14.65;29.02
75072;BME280;63651;55.728;38.022;2023-02-15T11:15:10;100026.38;;;14.78;28.99
75072;BME280;63651;55.728;38.022;2023-02-15T11:25:20;100026.16;;;14.80;28.34
75072;BME280;63651;55.728;38.022;2023-02-15T11:30:26;100025.50;;;14.84;28.45
75072;BME280;63651;55.728;38.022;2023-02-15T11:35:33;100044.00;;;14.82;28.34
75072;BME280;63651;55.728;38.022;2023-02-15T11:40:54;100057.47;;;14.84;28.27
75072;BME280;63651;55.728;38.022;2023-02-15T11:45:59;100060.81;;;14.86;28.23
75072;BME280;63651;55.728;38.022;2023-02-15T11:51:02;100048.06;;;14.73;27.55
75072;BME280;63651;55.728;38.022;2023-02-15T11:56:05;100069.28;;;14.78;28.09
75072;BME280;63651;55.728;38.022;2023-02-15T12:01:32;100060.03;;;14.79;28.00
75072;BME280;63651;55.728;38.022;2023-02-15T12:06:38;100074.81;;;14.71;28.18
75072;BME280;63651;55.728;38.022;2023-02-15T12:11:42;100080.06;;;14.72;28.14
75072;BME280;63651;55.728;38.022;2023-02-15T12:16:51;100093.94;;;14.71;28.57
75072;BME280;63651;55.728;38.022;2023-02-15T12:21:54;100097.03;;;14.81;27.89
75072;BME280;63651;55.728;38.022;2023-02-15T12:27:13;100105.47;;;14.80;28.57
75072;BME280;63651;55.728;38.022;2023-02-15T12:32:24;100114.31;;;14.75;28.56
75072;BME280;63651;55.728;38.022;2023-02-15T12:37:30;100109.69;;;14.76;28.96
75072;BME280;63651;55.728;38.022;2023-02-15T12:42:43;100110.94;;;14.80;29.08
75072;BME280;63651;55.728;38.022;2023-02-15T12:47:45;100119.75;;;14.82;28.85
75072;BME280;63651;55.728;38.022;2023-02-15T12:52:48;100126.28;;;14.81;29.39
75072;BME280;63651;55.728;38.022;2023-02-15T12:58:05;100125.66;;;14.79;29.17
75072;BME280;63651;55.728;38.022;2023-02-15T13:03:16;100124.44;;;14.75;28.94
75072;BME280;63651;55.728;38.022;2023-02-15T13:08:51;100150.28;;;14.79;29.33
75072;BME280;63651;55.728;38.022;2023-02-15T13:13:58;100139.38;;;14.72;28.78
75072;BME280;63651;55.728;38.022;2023-02-15T13:19:08;100160.19;;;14.73;28.56
75072;BME280;63651;55.728;38.022;2023-02-15T13:24:20;100164.63;;;14.67;29.44
75072;BME280;63651;55.728;38.022;2023-02-15T13:29:30;100161.09;;;14.60;29.44
75072;BME280;63651;55.728;38.022;2023-02-15T13:34:34;100172.44;;;14.64;29.30
75072;BME280;63651;55.728;38.022;2023-02-15T13:40:07;100173.69;;;14.68;29.01
75072;BME280;63651;55.728;38.022;2023-02-15T14:34:30;100231.81;;;14.44;29.47
75072;BME280;63651;55.728;38.022;2023-02-15T14:40:27;100238.31;;;14.43;28.98
75072;BME280;63651;55.728;38.022;2023-02-15T14:45:53;100232.00;;;14.35;28.20
75072;BME280;63651;55.728;38.022;2023-02-15T14:50:55;100240.00;;;14.30;29.10
75072;BME280;63651;55.728;38.022;2023-02-15T15:01:07;100253.66;;;14.30;29.31
75072;BME280;63651;55.728;38.022;2023-02-15T15:06:24;100256.19;;;14.32;29.32
75072;BME280;63651;55.728;38.022;2023-02-15T15:32:32;100259.97;;;14.31;29.60
75072;BME280;63651;55.728;38.022;2023-02-15T15:43:57;100279.09;;;14.31;29.17
75072;BME280;63651;55.728;38.022;2023-02-15T15:48:52;100285.41;;;14.31;29.80
75072;BME280;63651;55.728;38.022;2023-02-15T15:53:55;100294.25;;;14.33;29.11
75072;BME280;63651;55.728;38.022;2023-02-15T15:59:19;100299.06;;;14.38;29.25
75072;BME280;63651;55.728;38.022;2023-02-15T16:04:29;100297.41;;;14.30;29.47
75072;BME280;63651;55.728;38.022;2023-02-15T16:09:31;100306.84;;;14.34;29.90
75072;BME280;63651;55.728;38.022;2023-02-15T16:14:35;100308.53;;;14.35;29.50
75072;BME280;63651;55.728;38.022;2023-02-15T16:19:41;100311.28;;;14.42;29.50
75072;BME280;63651;55.728;38.022;2023-02-15T16:25:28;100305.59;;;14.44;29.24
75072;BME280;63651;55.728;38.022;2023-02-15T16:30:34;100310.22;;;14.36;29.89
75072;BME280;63651;55.728;38.022;2023-02-15T16:35:38;100309.59;;;14.34;29.18
75072;BME280;63651;55.728;38.022;2023-02-15T16:40:53;100324.28;;;14.40;29.38
75072;BME280;63651;55.728;38.022;2023-02-15T16:46:06;100322.63;;;14.39;30.10
75072;BME280;63651;55.728;38.022;2023-02-15T16:51:08;100321.78;;;14.38;30.03
75072;BME280;63651;55.728;38.022;2023-02-15T16:56:10;100324.53;;;14.45;30.00
75072;BME280;63651;55.728;38.022;2023-02-15T17:01:13;100318.44;;;14.50;30.49
75072;BME280;63651;55.728;38.022;2023-02-15T17:06:24;100327.91;;;14.47;30.02
75072;BME280;63651;55.728;38.022;2023-02-15T17:11:34;100315.69;;;14.56;30.48
75072;BME280;63651;55.728;38.022;2023-02-15T17:21:48;100315.25;;;14.39;30.14
75072;BME280;63651;55.728;38.022;2023-02-15T17:26:53;100314.41;;;14.39;30.48
75072;BME280;63651;55.728;38.022;2023-02-15T17:32:01;100320.75;;;14.46;30.00
75072;BME280;63651;55.728;38.022;2023-02-15T17:37:02;100329.75;;;14.40;30.61
75072;BME280;63651;55.728;38.022;2023-02-15T17:42:03;100320.13;;;14.44;30.19
75072;BME280;63651;55.728;38.022;2023-02-15T17:47:05;100325.34;;;14.39;30.29
75072;BME280;63651;55.728;38.022;2023-02-15T17:52:12;100327.47;;;14.44;30.10
75072;BME280;63651;55.728;38.022;2023-02-15T17:57:17;100332.50;;;14.40;30.54
75072;BME280;63651;55.728;38.022;2023-02-15T18:02:18;100340.28;;;14.36;30.59
75072;BME280;63651;55.728;38.022;2023-02-15T18:07:38;100340.28;;;14.36;31.43
75072;BME280;63651;55.728;38.022;2023-02-15T18:12:57;100339.00;;;14.39;31.98
75072;BME280;63651;55.728;38.022;2023-02-15T18:17:58;100339.22;;;14.37;32.67
75072;BME280;63651;55.728;38.022;2023-02-15T18:23:00;100335.03;;;14.41;32.06
75072;BME280;63651;55.728;38.022;2023-02-15T18:28:02;100339.00;;;14.39;31.82
75072;BME280;63651;55.728;38.022;2023-02-15T18:33:03;100340.50;;;14.41;31.60
75072;BME280;63651;55.728;38.022;2023-02-15T18:38:04;100333.97;;;14.36;30.96
75072;BME280;63651;55.728;38.022;2023-02-15T18:43:11;100337.72;;;14.22;30.73
75072;BME280;63651;55.728;38.022;2023-02-15T18:48:15;100338.78;;;14.21;29.77
75072;BME280;63651;55.728;38.022;2023-02-15T18:53:20;100346.13;;;14.14;29.97
75072;BME280;63651;55.728;38.022;2023-02-15T18:58:24;100336.03;;;14.01;30.27
75072;BME280;63651;55.728;38.022;2023-02-15T19:03:27;100340.25;;;14.10;29.84
75072;BME280;63651;55.728;38.022;2023-02-15T19:08:28;100349.25;;;13.97;30.09
75072;BME280;63651;55.728;38.022;2023-02-15T19:13:29;100350.31;;;13.96;30.25
75072;BME280;63651;55.728;38.022;2023-02-15T19:18:30;100349.88;;;13.93;30.04
75072;BME280;63651;55.728;38.022;2023-02-15T19:23:31;100338.13;;;13.92;29.91
75072;BME280;63651;55.728;38.022;2023-02-15T19:28:34;100347.13;;;13.80;30.42
75072;BME280;63651;55.728;38.022;2023-02-15T19:33:35;100338.94;;;13.80;30.68
75072;BME280;63651;55.728;38.022;2023-02-15T19:38:36;100341.03;;;13.77;30.61
75072;BME280;63651;55.728;38.022;2023-02-15T19:43:38;100347.56;;;13.83;30.44
75072;BME280;63651;55.728;38.022;2023-02-15T19:48:39;100340.41;;;13.75;29.85
75072;BME280;63651;55.728;38.022;2023-02-15T19:53:40;100340.59;;;13.74;29.91
75072;BME280;63651;55.728;38.022;2023-02-15T19:58:41;100337.25;;;13.72;29.69
75072;BME280;63651;55.728;38.022;2023-02-15T20:03:43;100343.13;;;13.75;29.66
75072;BME280;63651;55.728;38.022;2023-02-15T20:08:44;100341.00;;;13.64;29.82
75072;BME280;63651;55.728;38.022;2023-02-15T20:13:46;100338.91;;;13.66;29.66
75072;BME280;63651;55.728;38.022;2023-02-15T20:18:47;100338.69;;;13.61;29.99
75072;BME280;63651;55.728;38.022;2023-02-15T20:23:48;100333.63;;;13.58;29.35
75072;BME280;63651;55.728;38.022;2023-02-15T20:28:49;100341.41;;;13.55;29.56
75072;BME280;63651;55.728;38.022;2023-02-15T20:33:51;100339.28;;;13.50;29.67
75072;BME280;63651;55.728;38.022;2023-02-15T20:38:52;100339.91;;;13.52;29.29
75072;BME280;63651;55.728;38.022;2023-02-15T20:43:53;100340.56;;;13.54;29.58
75072;BME280;63651;55.728;38.022;2023-02-15T20:48:54;100340.16;;;13.57;29.72
75072;BME280;63651;55.728;38.022;2023-02-15T20:53:55;100338.25;;;13.51;29.51
75072;BME280;63651;55.728;38.022;2023-02-15T20:58:56;100342.41;;;13.47;29.59
75072;BME280;63651;55.728;38.022;2023-02-15T21:03:59;100336.75;;;13.42;29.48
75072;BME280;63651;55.728;38.022;2023-02-15T21:09:00;100339.25;;;13.43;30.10
75072;BME280;63651;55.728;38.022;2023-02-15T21:14:01;100331.69;;;13.39;29.54
75072;BME280;63651;55.728;38.022;2023-02-15T21:19:10;100334.66;;;13.51;29.57
75072;BME280;63651;55.728;38.022;2023-02-15T21:24:19;100333.81;;;13.43;29.57
75072;BME280;63651;55.728;38.022;2023-02-15T21:29:26;100325.56;;;13.30;29.84
75072;BME280;63651;55.728;38.022;2023-02-15T21:34:28;100326.81;;;13.28;29.97
75072;BME280;63651;55.728;38.022;2023-02-15T21:39:31;100331.88;;;13.31;29.62
75072;BME280;63651;55.728;38.022;2023-02-15T21:44:35;100336.50;;;13.37;29.86
75072;BME280;63651;55.728;38.022;2023-02-15T21:49:55;100338.00;;;13.39;30.13
75072;BME280;63651;55.728;38.022;2023-02-15T21:54:56;100346.19;;;13.39;30.07
75072;BME280;63651;55.728;38.022;2023-02-15T21:59:57;100353.53;;;13.39;30.07
75072;BME280;63651;55.728;38.022;2023-02-15T22:04:58;100339.22;;;13.30;30.09
75072;BME280;63651;55.728;38.022;2023-02-15T22:09:59;100343.41;;;13.33;30.33
75072;BME280;63651;55.728;38.022;2023-02-15T22:15:00;100343.22;;;13.34;30.00
75072;BME280;63651;55.728;38.022;2023-02-15T22:20:15;100345.91;;;13.28;30.11
75072;BME280;63651;55.728;38.022;2023-02-15T22:25:19;100344.06;;;13.35;30.52
75072;BME280;63651;55.728;38.022;2023-02-15T22:35:27;100340.69;;;13.33;30.71
75072;BME280;63651;55.728;38.022;2023-02-15T22:40:31;100332.72;;;13.31;30.10
75072;BME280;63651;55.728;38.022;2023-02-15T22:45:33;100322.63;;;13.25;30.01
75072;BME280;63651;55.728;38.022;2023-02-15T22:50:36;100330.59;;;13.27;29.80
75072;BME280;63651;55.728;38.022;2023-02-15T22:55:37;100324.94;;;13.28;29.59
75072;BME280;63651;55.728;38.022;2023-02-15T23:00:39;100328.91;;;13.26;29.80
75072;BME280;63651;55.728;38.022;2023-02-15T23:05:40;100323.22;;;13.21;29.47
75072;BME280;63651;55.728;38.022;2023-02-15T23:10:42;100321.53;;;13.20;29.73
75072;BME280;63651;55.728;38.022;2023-02-15T23:15:46;100330.56;;;13.20;30.05
75072;BME280;63651;55.728;38.022;2023-02-15T23:20:52;100326.59;;;13.23;30.13
75072;BME280;63651;55.728;38.022;2023-02-15T23:25:53;100322.97;;;13.16;29.61
75072;BME280;63651;55.728;38.022;2023-02-15T23:30:57;100313.94;;;13.15;29.64
75072;BME280;63651;55.728;38.022;2023-02-15T23:35:58;100317.34;;;13.17;29.33
75072;BME280;63651;55.728;38.022;2023-02-15T23:41:00;100323.44;;;13.19;29.38
75072;BME280;63651;55.728;38.022;2023-02-15T23:46:38;100310.56;;;13.13;29.56
75072;BME280;63651;55.728;38.022;2023-02-15T23:51:47;100310.56;;;13.13;29.71
75072;BME280;63651;55.728;38.022;2023-02-15T23:56:58;100309.53;;;13.14;29.75
